sensor_id;sensor_type;location;lat;lon;timestamp;temperature;humidity
19880;DHT22;10102;50.828;4.416;2022-07-19T00:01:59;25.90;98.40
19880;DHT22;10102;50.828;4.416;2022-07-19T00:04:24;25.80;99.90
19880;DHT22;10102;50.828;4.416;2022-07-19T00:06:50;25.80;98.50
19880;DHT22;10102;50.828;4.416;2022-07-19T00:09:16;25.60;99.90
19880;DHT22;10102;50.828;4.416;2022-07-19T00:11:42;25.50;99.90
19880;DHT22;10102;50.828;4.416;2022-07-19T00:14:07;24.70;98.70
19880;DHT22;10102;50.828;4.416;2022-07-19T00:16:33;25.70;98.80
19880;DHT22;10102;50.828;4.416;2022-07-19T00:18:59;25.80;98.70
19880;DHT22;10102;50.828;4.416;2022-07-19T00:21:24;25.80;99.90
19880;DHT22;10102;50.828;4.416;2022-07-19T00:23:50;25.80;98.60
19880;DHT22;10102;50.828;4.416;2022-07-19T00:26:16;25.70;98.40
19880;DHT22;10102;50.828;4.416;2022-07-19T00:28:41;25.60;99.90
19880;DHT22;10102;50.828;4.416;2022-07-19T00:31:07;25.40;99.90
19880;DHT22;10102;50.828;4.416;2022-07-19T00:33:33;25.60;99.90
19880;DHT22;10102;50.828;4.416;2022-07-19T00:35:58;25.40;99.90
19880;DHT22;10102;50.828;4.416;2022-07-19T00:38:24;25.30;99.90
19880;DHT22;10102;50.828;4.416;2022-07-19T00:40:50;25.30;99.20
19880;DHT22;10102;50.828;4.416;2022-07-19T00:43:16;25.40;98.90
19880;DHT22;10102;50.828;4.416;2022-07-19T00:45:42;25.30;98.70
19880;DHT22;10102;50.828;4.416;2022-07-19T00:48:07;25.30;98.80
19880;DHT22;10102;50.828;4.416;2022-07-19T00:50:33;25.30;99.90
19880;DHT22;10102;50.828;4.416;2022-07-19T00:53:01;25.50;99.90
19880;DHT22;10102;50.828;4.416;2022-07-19T00:55:33;25.20;98.50
19880;DHT22;10102;50.828;4.416;2022-07-19T00:58:00;25.20;99.90
19880;DHT22;10102;50.828;4.416;2022-07-19T01:00:28;25.20;99.90
19880;DHT22;10102;50.828;4.416;2022-07-19T01:05:20;25.10;98.20
19880;DHT22;10102;50.828;4.416;2022-07-19T01:07:46;25.10;98.50
19880;DHT22;10102;50.828;4.416;2022-07-19T01:10:14;25.10;98.70
19880;DHT22;10102;50.828;4.416;2022-07-19T01:12:41;25.20;99.20
19880;DHT22;10102;50.828;4.416;2022-07-19T01:15:17;25.10;98.50
19880;DHT22;10102;50.828;4.416;2022-07-19T01:17:44;25.00;98.40
19880;DHT22;10102;50.828;4.416;2022-07-19T01:20:10;25.00;99.90
19880;DHT22;10102;50.828;4.416;2022-07-19T01:22:36;24.90;99.00
19880;DHT22;10102;50.828;4.416;2022-07-19T01:25:02;24.70;99.90
19880;DHT22;10102;50.828;4.416;2022-07-19T01:27:28;24.80;99.00
19880;DHT22;10102;50.828;4.416;2022-07-19T01:29:54;24.80;99.10
19880;DHT22;10102;50.828;4.416;2022-07-19T01:32:19;24.80;99.30
19880;DHT22;10102;50.828;4.416;2022-07-19T01:34:45;24.90;99.90
19880;DHT22;10102;50.828;4.416;2022-07-19T01:37:11;24.70;99.90
19880;DHT22;10102;50.828;4.416;2022-07-19T01:39:36;24.70;99.30
19880;DHT22;10102;50.828;4.416;2022-07-19T01:42:02;24.60;99.90
19880;DHT22;10102;50.828;4.416;2022-07-19T01:44:29;24.50;99.90
19880;DHT22;10102;50.828;4.416;2022-07-19T01:46:54;24.60;99.90
19880;DHT22;10102;50.828;4.416;2022-07-19T01:49:20;24.70;99.70
19880;DHT22;10102;50.828;4.416;2022-07-19T01:51:46;24.50;99.60
19880;DHT22;10102;50.828;4.416;2022-07-19T01:54:11;24.60;99.90
19880;DHT22;10102;50.828;4.416;2022-07-19T01:56:41;24.40;99.80
19880;DHT22;10102;50.828;4.416;2022-07-19T01:59:08;24.40;99.90
19880;DHT22;10102;50.828;4.416;2022-07-19T02:01:33;24.10;99.90
19880;DHT22;10102;50.828;4.416;2022-07-19T02:03:59;24.20;99.90
19880;DHT22;10102;50.828;4.416;2022-07-19T02:06:25;24.30;99.90
19880;DHT22;10102;50.828;4.416;2022-07-19T02:08:50;24.30;99.90
19880;DHT22;10102;50.828;4.416;2022-07-19T02:11:16;24.30;99.90
19880;DHT22;10102;50.828;4.416;2022-07-19T02:14:01;24.40;99.90
19880;DHT22;10102;50.828;4.416;2022-07-19T02:16:27;24.20;99.90
19880;DHT22;10102;50.828;4.416;2022-07-19T02:18:53;24.30;99.90
19880;DHT22;10102;50.828;4.416;2022-07-19T02:21:19;24.30;99.90
19880;DHT22;10102;50.828;4.416;2022-07-19T02:23:45;24.20;99.90
19880;DHT22;10102;50.828;4.416;2022-07-19T02:26:11;24.30;99.90
19880;DHT22;10102;50.828;4.416;2022-07-19T02:28:36;23.80;99.90
19880;DHT22;10102;50.828;4.416;2022-07-19T02:31:02;24.20;99.90
19880;DHT22;10102;50.828;4.416;2022-07-19T02:33:28;24.20;99.90
19880;DHT22;10102;50.828;4.416;2022-07-19T02:35:53;24.20;99.90
19880;DHT22;10102;50.828;4.416;2022-07-19T02:38:19;24.10;99.90
19880;DHT22;10102;50.828;4.416;2022-07-19T02:40:45;24.10;99.90
19880;DHT22;10102;50.828;4.416;2022-07-19T02:43:10;23.90;99.90
19880;DHT22;10102;50.828;4.416;2022-07-19T02:45:36;24.50;99.90
19880;DHT22;10102;50.828;4.416;2022-07-19T02:48:02;24.00;99.90
19880;DHT22;10102;50.828;4.416;2022-07-19T02:50:30;24.10;99.90
19880;DHT22;10102;50.828;4.416;2022-07-19T02:52:56;24.00;99.90
19880;DHT22;10102;50.828;4.416;2022-07-19T02:55:22;24.00;99.90
19880;DHT22;10102;50.828;4.416;2022-07-19T02:57:48;24.00;99.90
19880;DHT22;10102;50.828;4.416;2022-07-19T03:00:14;24.00;99.90
19880;DHT22;10102;50.828;4.416;2022-07-19T03:02:40;23.60;99.90
19880;DHT22;10102;50.828;4.416;2022-07-19T03:05:07;23.80;99.90
19880;DHT22;10102;50.828;4.416;2022-07-19T03:07:33;23.80;99.90
19880;DHT22;10102;50.828;4.416;2022-07-19T03:09:59;24.00;99.90
19880;DHT22;10102;50.828;4.416;2022-07-19T03:12:24;23.90;99.90
19880;DHT22;10102;50.828;4.416;2022-07-19T03:14:50;23.80;99.90
19880;DHT22;10102;50.828;4.416;2022-07-19T03:17:16;23.70;99.90
19880;DHT22;10102;50.828;4.416;2022-07-19T03:19:41;23.70;99.90
19880;DHT22;10102;50.828;4.416;2022-07-19T03:22:07;23.70;99.90
19880;DHT22;10102;50.828;4.416;2022-07-19T03:24:33;23.70;99.90
19880;DHT22;10102;50.828;4.416;2022-07-19T03:26:58;23.60;99.90
19880;DHT22;10102;50.828;4.416;2022-07-19T03:29:24;23.60;99.90
19880;DHT22;10102;50.828;4.416;2022-07-19T03:31:50;23.60;99.90
19880;DHT22;10102;50.828;4.416;2022-07-19T03:34:16;23.40;99.90
19880;DHT22;10102;50.828;4.416;2022-07-19T03:36:42;23.50;99.90
19880;DHT22;10102;50.828;4.416;2022-07-19T03:39:08;23.70;99.90
19880;DHT22;10102;50.828;4.416;2022-07-19T03:41:34;23.60;99.90
19880;DHT22;10102;50.828;4.416;2022-07-19T03:44:00;23.60;99.90
19880;DHT22;10102;50.828;4.416;2022-07-19T03:46:26;23.40;99.90
19880;DHT22;10102;50.828;4.416;2022-07-19T03:48:53;23.50;99.90
19880;DHT22;10102;50.828;4.416;2022-07-19T03:51:19;23.40;99.90
19880;DHT22;10102;50.828;4.416;2022-07-19T03:53:45;23.50;99.90
19880;DHT22;10102;50.828;4.416;2022-07-19T03:56:12;23.30;99.90
19880;DHT22;10102;50.828;4.416;2022-07-19T03:58:38;23.40;99.90
19880;DHT22;10102;50.828;4.416;2022-07-19T04:01:04;23.40;99.90
19880;DHT22;10102;50.828;4.416;2022-07-19T04:03:29;23.40;99.90
19880;DHT22;10102;50.828;4.416;2022-07-19T04:05:55;23.50;99.90
19880;DHT22;10102;50.828;4.416;2022-07-19T04:08:21;23.50;99.90
19880;DHT22;10102;50.828;4.416;2022-07-19T04:10:46;26.60;99.90
19880;DHT22;10102;50.828;4.416;2022-07-19T04:13:12;23.60;99.90
19880;DHT22;10102;50.828;4.416;2022-07-19T04:15:38;23.50;99.90
19880;DHT22;10102;50.828;4.416;2022-07-19T04:20:29;23.60;99.20
19880;DHT22;10102;50.828;4.416;2022-07-19T04:22:55;23.60;99.90
19880;DHT22;10102;50.828;4.416;2022-07-19T04:25:22;23.60;99.90
19880;DHT22;10102;50.828;4.416;2022-07-19T04:27:48;23.50;99.90
19880;DHT22;10102;50.828;4.416;2022-07-19T04:30:14;23.80;99.90
19880;DHT22;10102;50.828;4.416;2022-07-19T04:32:39;23.40;99.90
19880;DHT22;10102;50.828;4.416;2022-07-19T04:35:05;23.50;99.90
19880;DHT22;10102;50.828;4.416;2022-07-19T04:37:32;23.30;99.90
19880;DHT22;10102;50.828;4.416;2022-07-19T04:39:58;23.30;99.90
19880;DHT22;10102;50.828;4.416;2022-07-19T04:42:24;23.50;99.90
19880;DHT22;10102;50.828;4.416;2022-07-19T04:47:16;23.00;99.90
19880;DHT22;10102;50.828;4.416;2022-07-19T04:49:44;23.40;99.90
19880;DHT22;10102;50.828;4.416;2022-07-19T04:52:09;23.70;99.90
19880;DHT22;10102;50.828;4.416;2022-07-19T04:54:35;23.70;99.90
19880;DHT22;10102;50.828;4.416;2022-07-19T04:57:01;23.70;99.90
19880;DHT22;10102;50.828;4.416;2022-07-19T04:59:27;23.90;99.90
19880;DHT22;10102;50.828;4.416;2022-07-19T05:01:52;23.90;99.90
19880;DHT22;10102;50.828;4.416;2022-07-19T05:04:18;24.10;99.90
19880;DHT22;10102;50.828;4.416;2022-07-19T05:06:44;23.90;99.90
19880;DHT22;10102;50.828;4.416;2022-07-19T05:09:10;24.00;99.90
19880;DHT22;10102;50.828;4.416;2022-07-19T05:11:36;23.90;99.90
19880;DHT22;10102;50.828;4.416;2022-07-19T05:14:02;21.00;99.60
19880;DHT22;10102;50.828;4.416;2022-07-19T05:16:27;23.80;99.90
19880;DHT22;10102;50.828;4.416;2022-07-19T05:18:53;24.20;99.90
19880;DHT22;10102;50.828;4.416;2022-07-19T05:21:18;24.30;99.70
19880;DHT22;10102;50.828;4.416;2022-07-19T05:23:44;24.30;99.90
19880;DHT22;10102;50.828;4.416;2022-07-19T05:26:10;24.40;99.60
19880;DHT22;10102;50.828;4.416;2022-07-19T05:28:35;24.40;99.90
19880;DHT22;10102;50.828;4.416;2022-07-19T05:31:02;24.70;99.90
19880;DHT22;10102;50.828;4.416;2022-07-19T05:33:28;24.80;99.90
19880;DHT22;10102;50.828;4.416;2022-07-19T05:35:55;24.60;99.90
19880;DHT22;10102;50.828;4.416;2022-07-19T05:38:22;24.70;99.90
19880;DHT22;10102;50.828;4.416;2022-07-19T05:40:47;24.80;99.90
19880;DHT22;10102;50.828;4.416;2022-07-19T05:43:13;24.90;99.90
19880;DHT22;10102;50.828;4.416;2022-07-19T05:45:39;25.10;99.90
19880;DHT22;10102;50.828;4.416;2022-07-19T05:48:05;25.10;99.70
19880;DHT22;10102;50.828;4.416;2022-07-19T05:50:31;24.90;99.90
19880;DHT22;10102;50.828;4.416;2022-07-19T05:52:57;25.40;99.90
19880;DHT22;10102;50.828;4.416;2022-07-19T05:55:22;28.60;99.90
19880;DHT22;10102;50.828;4.416;2022-07-19T05:57:48;25.80;99.90
19880;DHT22;10102;50.828;4.416;2022-07-19T06:00:13;25.70;99.90
19880;DHT22;10102;50.828;4.416;2022-07-19T06:02:40;26.00;99.90
19880;DHT22;10102;50.828;4.416;2022-07-19T06:05:06;26.20;99.90
19880;DHT22;10102;50.828;4.416;2022-07-19T06:07:33;24.80;99.60
19880;DHT22;10102;50.828;4.416;2022-07-19T06:09:58;30.00;99.90
19880;DHT22;10102;50.828;4.416;2022-07-19T06:12:24;26.50;99.20
19880;DHT22;10102;50.828;4.416;2022-07-19T06:14:50;26.70;98.80
19880;DHT22;10102;50.828;4.416;2022-07-19T06:17:16;26.70;97.30
19880;DHT22;10102;50.828;4.416;2022-07-19T06:19:41;26.80;99.90
19880;DHT22;10102;50.828;4.416;2022-07-19T06:22:07;26.80;96.40
19880;DHT22;10102;50.828;4.416;2022-07-19T06:24:33;26.80;96.20
19880;DHT22;10102;50.828;4.416;2022-07-19T06:26:58;27.00;95.90
19880;DHT22;10102;50.828;4.416;2022-07-19T06:29:24;27.00;95.70
19880;DHT22;10102;50.828;4.416;2022-07-19T06:31:50;27.10;95.70
19880;DHT22;10102;50.828;4.416;2022-07-19T06:34:15;27.40;95.20
19880;DHT22;10102;50.828;4.416;2022-07-19T06:36:41;27.50;94.90
19880;DHT22;10102;50.828;4.416;2022-07-19T06:39:07;29.80;99.90
19880;DHT22;10102;50.828;4.416;2022-07-19T06:41:32;27.70;94.30
19880;DHT22;10102;50.828;4.416;2022-07-19T06:43:58;27.90;93.60
19880;DHT22;10102;50.828;4.416;2022-07-19T06:46:24;27.80;93.50
19880;DHT22;10102;50.828;4.416;2022-07-19T06:48:49;27.90;93.20
19880;DHT22;10102;50.828;4.416;2022-07-19T06:51:15;28.00;93.00
19880;DHT22;10102;50.828;4.416;2022-07-19T06:53:40;28.20;92.90
19880;DHT22;10102;50.828;4.416;2022-07-19T06:56:06;28.30;92.70
19880;DHT22;10102;50.828;4.416;2022-07-19T06:58:32;28.40;92.70
19880;DHT22;10102;50.828;4.416;2022-07-19T07:00:58;28.70;92.40
19880;DHT22;10102;50.828;4.416;2022-07-19T07:03:25;28.90;98.60
19880;DHT22;10102;50.828;4.416;2022-07-19T07:05:51;28.80;91.90
19880;DHT22;10102;50.828;4.416;2022-07-19T07:08:17;29.00;91.80
19880;DHT22;10102;50.828;4.416;2022-07-19T07:10:43;29.10;91.40
19880;DHT22;10102;50.828;4.416;2022-07-19T07:13:09;29.00;91.10
19880;DHT22;10102;50.828;4.416;2022-07-19T07:15:34;28.90;91.30
19880;DHT22;10102;50.828;4.416;2022-07-19T07:18:00;28.90;97.80
19880;DHT22;10102;50.828;4.416;2022-07-19T07:20:26;28.80;91.20
19880;DHT22;10102;50.828;4.416;2022-07-19T07:22:51;28.90;91.00
19880;DHT22;10102;50.828;4.416;2022-07-19T07:25:17;29.10;90.80
19880;DHT22;10102;50.828;4.416;2022-07-19T07:27:43;29.10;90.40
19880;DHT22;10102;50.828;4.416;2022-07-19T07:30:10;29.30;91.20
19880;DHT22;10102;50.828;4.416;2022-07-19T07:32:36;29.10;90.90
19880;DHT22;10102;50.828;4.416;2022-07-19T07:35:02;29.20;91.00
19880;DHT22;10102;50.828;4.416;2022-07-19T07:37:28;29.40;91.00
19880;DHT22;10102;50.828;4.416;2022-07-19T07:39:54;29.60;90.50
19880;DHT22;10102;50.828;4.416;2022-07-19T07:42:20;29.80;90.30
19880;DHT22;10102;50.828;4.416;2022-07-19T07:44:46;29.80;90.70
19880;DHT22;10102;50.828;4.416;2022-07-19T07:47:12;30.00;90.50
19880;DHT22;10102;50.828;4.416;2022-07-19T07:49:39;30.00;90.00
19880;DHT22;10102;50.828;4.416;2022-07-19T07:52:06;30.10;89.70
19880;DHT22;10102;50.828;4.416;2022-07-19T07:54:33;30.10;89.70
19880;DHT22;10102;50.828;4.416;2022-07-19T07:56:59;30.20;89.90
19880;DHT22;10102;50.828;4.416;2022-07-19T07:59:24;30.00;89.80
19880;DHT22;10102;50.828;4.416;2022-07-19T08:01:50;30.00;89.60
19880;DHT22;10102;50.828;4.416;2022-07-19T08:04:16;30.30;90.00
19880;DHT22;10102;50.828;4.416;2022-07-19T08:06:41;30.50;89.60
19880;DHT22;10102;50.828;4.416;2022-07-19T08:09:07;30.70;88.60
19880;DHT22;10102;50.828;4.416;2022-07-19T08:11:33;30.80;88.40
19880;DHT22;10102;50.828;4.416;2022-07-19T08:13:59;30.70;88.50
19880;DHT22;10102;50.828;4.416;2022-07-19T08:16:24;30.90;95.60
19880;DHT22;10102;50.828;4.416;2022-07-19T08:18:50;30.90;89.10
19880;DHT22;10102;50.828;4.416;2022-07-19T08:21:16;31.00;87.60
19880;DHT22;10102;50.828;4.416;2022-07-19T08:23:41;31.00;86.90
19880;DHT22;10102;50.828;4.416;2022-07-19T08:26:08;31.10;87.10
19880;DHT22;10102;50.828;4.416;2022-07-19T08:28:34;31.40;93.80
19880;DHT22;10102;50.828;4.416;2022-07-19T08:31:00;31.40;85.40
19880;DHT22;10102;50.828;4.416;2022-07-19T08:33:25;31.40;84.30
19880;DHT22;10102;50.828;4.416;2022-07-19T08:35:51;31.20;83.50
19880;DHT22;10102;50.828;4.416;2022-07-19T08:38:17;31.20;83.60
19880;DHT22;10102;50.828;4.416;2022-07-19T08:40:43;31.40;83.90
19880;DHT22;10102;50.828;4.416;2022-07-19T08:43:09;31.50;83.90
19880;DHT22;10102;50.828;4.416;2022-07-19T08:45:36;31.70;82.60
19880;DHT22;10102;50.828;4.416;2022-07-19T08:48:07;31.60;81.50
19880;DHT22;10102;50.828;4.416;2022-07-19T08:50:34;31.70;82.00
19880;DHT22;10102;50.828;4.416;2022-07-19T08:53:00;31.80;82.40
19880;DHT22;10102;50.828;4.416;2022-07-19T08:55:27;32.00;80.50
19880;DHT22;10102;50.828;4.416;2022-07-19T08:57:53;32.00;79.90
19880;DHT22;10102;50.828;4.416;2022-07-19T09:00:33;32.10;80.50
19880;DHT22;10102;50.828;4.416;2022-07-19T09:03:00;32.30;78.40
19880;DHT22;10102;50.828;4.416;2022-07-19T09:05:27;32.50;78.20
19880;DHT22;10102;50.828;4.416;2022-07-19T09:10:41;30.90;89.00
19880;DHT22;10102;50.828;4.416;2022-07-19T09:13:09;32.50;77.60
19880;DHT22;10102;50.828;4.416;2022-07-19T09:15:36;32.70;89.10
19880;DHT22;10102;50.828;4.416;2022-07-19T09:18:07;32.80;76.70
19880;DHT22;10102;50.828;4.416;2022-07-19T09:20:33;33.00;76.10
19880;DHT22;10102;50.828;4.416;2022-07-19T09:23:00;33.10;74.20
19880;DHT22;10102;50.828;4.416;2022-07-19T09:25:47;33.10;74.00
19880;DHT22;10102;50.828;4.416;2022-07-19T09:28:15;33.20;74.20
19880;DHT22;10102;50.828;4.416;2022-07-19T09:30:59;33.20;74.10
19880;DHT22;10102;50.828;4.416;2022-07-19T09:33:30;33.50;84.20
19880;DHT22;10102;50.828;4.416;2022-07-19T09:36:03;33.40;71.30
19880;DHT22;10102;50.828;4.416;2022-07-19T09:38:34;33.50;70.90
19880;DHT22;10102;50.828;4.416;2022-07-19T09:41:17;33.50;71.30
19880;DHT22;10102;50.828;4.416;2022-07-19T09:44:03;33.60;70.40
19880;DHT22;10102;50.828;4.416;2022-07-19T09:46:36;33.60;69.50
19880;DHT22;10102;50.828;4.416;2022-07-19T09:51:40;34.00;70.60
19880;DHT22;10102;50.828;4.416;2022-07-19T09:54:08;34.10;70.00
19880;DHT22;10102;50.828;4.416;2022-07-19T09:56:37;34.20;69.70
19880;DHT22;10102;50.828;4.416;2022-07-19T09:59:03;34.30;69.50
19880;DHT22;10102;50.828;4.416;2022-07-19T10:01:30;34.30;69.30
19880;DHT22;10102;50.828;4.416;2022-07-19T10:04:01;34.50;69.10
19880;DHT22;10102;50.828;4.416;2022-07-19T10:06:27;33.90;79.70
19880;DHT22;10102;50.828;4.416;2022-07-19T10:08:53;33.30;66.70
19880;DHT22;10102;50.828;4.416;2022-07-19T10:11:21;34.70;66.40
19880;DHT22;10102;50.828;4.416;2022-07-19T10:13:48;34.80;67.10
19880;DHT22;10102;50.828;4.416;2022-07-19T10:16:19;34.70;65.70
19880;DHT22;10102;50.828;4.416;2022-07-19T10:19:05;34.80;65.30
19880;DHT22;10102;50.828;4.416;2022-07-19T10:21:35;34.80;65.20
19880;DHT22;10102;50.828;4.416;2022-07-19T10:24:01;34.90;66.00
19880;DHT22;10102;50.828;4.416;2022-07-19T10:26:38;35.10;64.30
19880;DHT22;10102;50.828;4.416;2022-07-19T10:29:16;35.30;62.40
19880;DHT22;10102;50.828;4.416;2022-07-19T10:31:45;35.30;62.40
19880;DHT22;10102;50.828;4.416;2022-07-19T10:34:27;35.90;74.00
19880;DHT22;10102;50.828;4.416;2022-07-19T10:36:53;35.50;62.40
19880;DHT22;10102;50.828;4.416;2022-07-19T10:39:29;35.60;62.60
19880;DHT22;10102;50.828;4.416;2022-07-19T10:44:35;35.60;61.30
19880;DHT22;10102;50.828;4.416;2022-07-19T10:50:15;36.20;71.30
19880;DHT22;10102;50.828;4.416;2022-07-19T10:52:47;36.00;59.50
19880;DHT22;10102;50.828;4.416;2022-07-19T11:00:26;36.10;59.50
19880;DHT22;10102;50.828;4.416;2022-07-19T11:03:26;36.30;59.90
19880;DHT22;10102;50.828;4.416;2022-07-19T11:05:56;36.30;58.90
19880;DHT22;10102;50.828;4.416;2022-07-19T11:08:36;36.40;59.30
19880;DHT22;10102;50.828;4.416;2022-07-19T11:11:13;36.50;59.30
19880;DHT22;10102;50.828;4.416;2022-07-19T11:13:41;36.60;59.20
19880;DHT22;10102;50.828;4.416;2022-07-19T11:16:08;36.60;57.70
19880;DHT22;10102;50.828;4.416;2022-07-19T11:18:34;36.80;58.70
19880;DHT22;10102;50.828;4.416;2022-07-19T11:21:02;37.00;57.70
19880;DHT22;10102;50.828;4.416;2022-07-19T11:23:32;37.20;57.50
19880;DHT22;10102;50.828;4.416;2022-07-19T11:26:18;37.30;56.70
19880;DHT22;10102;50.828;4.416;2022-07-19T11:28:47;37.30;56.90
19880;DHT22;10102;50.828;4.416;2022-07-19T11:31:22;37.20;56.60
19880;DHT22;10102;50.828;4.416;2022-07-19T11:33:50;37.40;57.40
19880;DHT22;10102;50.828;4.416;2022-07-19T11:36:19;38.00;56.40
19880;DHT22;10102;50.828;4.416;2022-07-19T11:38:47;38.70;55.70
19880;DHT22;10102;50.828;4.416;2022-07-19T11:41:22;39.30;55.30
19880;DHT22;10102;50.828;4.416;2022-07-19T11:46:32;43.40;51.70
19880;DHT22;10102;50.828;4.416;2022-07-19T11:49:01;44.50;48.60
19880;DHT22;10102;50.828;4.416;2022-07-19T11:51:29;45.10;47.20
19880;DHT22;10102;50.828;4.416;2022-07-19T11:53:57;46.30;46.40
19880;DHT22;10102;50.828;4.416;2022-07-19T11:56:25;47.90;44.50
19880;DHT22;10102;50.828;4.416;2022-07-19T11:58:53;49.10;42.50
19880;DHT22;10102;50.828;4.416;2022-07-19T12:01:37;49.80;41.70
19880;DHT22;10102;50.828;4.416;2022-07-19T12:04:08;51.10;40.60
19880;DHT22;10102;50.828;4.416;2022-07-19T12:06:36;50.20;40.50
19880;DHT22;10102;50.828;4.416;2022-07-19T12:09:08;49.50;40.90
19880;DHT22;10102;50.828;4.416;2022-07-19T12:11:45;50.40;41.30
19880;DHT22;10102;50.828;4.416;2022-07-19T12:14:24;52.90;39.50
19880;DHT22;10102;50.828;4.416;2022-07-19T12:17:10;53.70;37.50
19880;DHT22;10102;50.828;4.416;2022-07-19T12:19:38;54.70;37.10
19880;DHT22;10102;50.828;4.416;2022-07-19T12:22:03;54.50;36.80
19880;DHT22;10102;50.828;4.416;2022-07-19T12:24:30;53.80;37.00
19880;DHT22;10102;50.828;4.416;2022-07-19T12:27:06;54.80;35.70
19880;DHT22;10102;50.828;4.416;2022-07-19T12:29:52;55.90;35.80
19880;DHT22;10102;50.828;4.416;2022-07-19T12:32:30;57.10;35.10
19880;DHT22;10102;50.828;4.416;2022-07-19T12:35:05;56.20;34.60
19880;DHT22;10102;50.828;4.416;2022-07-19T12:37:38;57.20;34.80
19880;DHT22;10102;50.828;4.416;2022-07-19T12:40:19;57.80;33.70
19880;DHT22;10102;50.828;4.416;2022-07-19T12:45:21;59.50;32.70
19880;DHT22;10102;50.828;4.416;2022-07-19T12:47:49;60.50;32.60
19880;DHT22;10102;50.828;4.416;2022-07-19T12:50:22;60.40;30.90
19880;DHT22;10102;50.828;4.416;2022-07-19T12:52:50;57.70;32.20
19880;DHT22;10102;50.828;4.416;2022-07-19T12:55:16;56.70;32.90
19880;DHT22;10102;50.828;4.416;2022-07-19T12:57:42;57.90;31.80
19880;DHT22;10102;50.828;4.416;2022-07-19T13:00:08;55.40;33.10
19880;DHT22;10102;50.828;4.416;2022-07-19T13:02:34;55.50;33.10
19880;DHT22;10102;50.828;4.416;2022-07-19T13:04:59;56.20;32.70
19880;DHT22;10102;50.828;4.416;2022-07-19T13:07:25;56.40;31.90
19880;DHT22;10102;50.828;4.416;2022-07-19T13:09:51;55.90;32.30
19880;DHT22;10102;50.828;4.416;2022-07-19T13:12:16;56.70;32.50
19880;DHT22;10102;50.828;4.416;2022-07-19T13:14:42;56.50;31.70
19880;DHT22;10102;50.828;4.416;2022-07-19T13:17:08;55.60;32.60
19880;DHT22;10102;50.828;4.416;2022-07-19T13:19:37;56.20;32.60
19880;DHT22;10102;50.828;4.416;2022-07-19T13:22:04;58.40;31.70
19880;DHT22;10102;50.828;4.416;2022-07-19T13:24:30;59.40;30.70
19880;DHT22;10102;50.828;4.416;2022-07-19T13:26:55;58.70;30.50
19880;DHT22;10102;50.828;4.416;2022-07-19T13:29:21;58.70;30.50
19880;DHT22;10102;50.828;4.416;2022-07-19T13:31:47;59.30;30.40
19880;DHT22;10102;50.828;4.416;2022-07-19T13:34:13;60.30;29.60
19880;DHT22;10102;50.828;4.416;2022-07-19T13:36:39;60.30;30.00
19880;DHT22;10102;50.828;4.416;2022-07-19T13:39:05;61.20;29.20
19880;DHT22;10102;50.828;4.416;2022-07-19T13:41:31;61.20;29.30
19880;DHT22;10102;50.828;4.416;2022-07-19T13:43:57;61.30;29.30
19880;DHT22;10102;50.828;4.416;2022-07-19T13:46:22;61.60;28.40
19880;DHT22;10102;50.828;4.416;2022-07-19T13:48:48;61.50;29.00
19880;DHT22;10102;50.828;4.416;2022-07-19T13:51:14;61.70;28.70
19880;DHT22;10102;50.828;4.416;2022-07-19T13:53:40;61.60;28.50
19880;DHT22;10102;50.828;4.416;2022-07-19T13:56:06;62.80;28.00
19880;DHT22;10102;50.828;4.416;2022-07-19T13:58:32;62.50;28.20
19880;DHT22;10102;50.828;4.416;2022-07-19T14:00:58;62.10;27.80
19880;DHT22;10102;50.828;4.416;2022-07-19T14:03:25;60.80;27.00
19880;DHT22;10102;50.828;4.416;2022-07-19T14:05:51;58.60;28.00
19880;DHT22;10102;50.828;4.416;2022-07-19T14:08:16;57.60;28.60
19880;DHT22;10102;50.828;4.416;2022-07-19T14:10:43;58.60;29.00
19880;DHT22;10102;50.828;4.416;2022-07-19T14:13:09;59.90;28.50
19880;DHT22;10102;50.828;4.416;2022-07-19T14:15:35;60.10;27.70
19880;DHT22;10102;50.828;4.416;2022-07-19T14:18:01;60.70;27.80
19880;DHT22;10102;50.828;4.416;2022-07-19T14:20:27;61.10;27.80
19880;DHT22;10102;50.828;4.416;2022-07-19T14:22:53;61.10;27.50
19880;DHT22;10102;50.828;4.416;2022-07-19T14:25:20;61.10;27.10
19880;DHT22;10102;50.828;4.416;2022-07-19T14:27:46;61.90;26.90
19880;DHT22;10102;50.828;4.416;2022-07-19T14:30:12;60.80;27.40
19880;DHT22;10102;50.828;4.416;2022-07-19T14:32:38;60.40;27.00
19880;DHT22;10102;50.828;4.416;2022-07-19T14:35:04;60.10;27.20
19880;DHT22;10102;50.828;4.416;2022-07-19T14:37:30;60.40;27.30
19880;DHT22;10102;50.828;4.416;2022-07-19T14:39:56;60.10;27.70
19880;DHT22;10102;50.828;4.416;2022-07-19T14:42:21;61.00;27.70
19880;DHT22;10102;50.828;4.416;2022-07-19T14:44:47;62.40;27.70
19880;DHT22;10102;50.828;4.416;2022-07-19T14:47:13;63.50;27.20
19880;DHT22;10102;50.828;4.416;2022-07-19T14:49:38;63.60;26.80
19880;DHT22;10102;50.828;4.416;2022-07-19T14:52:05;63.90;26.20
19880;DHT22;10102;50.828;4.416;2022-07-19T14:54:31;63.60;26.20
19880;DHT22;10102;50.828;4.416;2022-07-19T14:56:57;63.40;25.40
19880;DHT22;10102;50.828;4.416;2022-07-19T14:59:24;60.00;26.10
19880;DHT22;10102;50.828;4.416;2022-07-19T15:01:50;58.50;27.10
19880;DHT22;10102;50.828;4.416;2022-07-19T15:04:17;58.20;26.80
19880;DHT22;10102;50.828;4.416;2022-07-19T15:06:42;58.30;27.00
19880;DHT22;10102;50.828;4.416;2022-07-19T15:09:09;59.20;27.20
19880;DHT22;10102;50.828;4.416;2022-07-19T15:11:35;60.20;26.90
19880;DHT22;10102;50.828;4.416;2022-07-19T15:14:01;61.10;27.30
19880;DHT22;10102;50.828;4.416;2022-07-19T15:16:27;61.50;27.60
19880;DHT22;10102;50.828;4.416;2022-07-19T15:18:53;62.70;27.00
19880;DHT22;10102;50.828;4.416;2022-07-19T15:21:19;62.70;26.80
19880;DHT22;10102;50.828;4.416;2022-07-19T15:23:45;63.70;26.80
19880;DHT22;10102;50.828;4.416;2022-07-19T15:26:11;64.10;27.00
19880;DHT22;10102;50.828;4.416;2022-07-19T15:28:37;64.20;26.90
19880;DHT22;10102;50.828;4.416;2022-07-19T15:31:06;64.10;26.40
19880;DHT22;10102;50.828;4.416;2022-07-19T15:33:32;64.80;26.50
19880;DHT22;10102;50.828;4.416;2022-07-19T15:35:59;64.20;26.30
19880;DHT22;10102;50.828;4.416;2022-07-19T15:38:25;64.70;26.20
19880;DHT22;10102;50.828;4.416;2022-07-19T15:40:50;64.80;26.20
19880;DHT22;10102;50.828;4.416;2022-07-19T15:43:17;64.00;26.20
19880;DHT22;10102;50.828;4.416;2022-07-19T15:45:43;63.90;26.40
19880;DHT22;10102;50.828;4.416;2022-07-19T15:48:09;62.90;26.40
19880;DHT22;10102;50.828;4.416;2022-07-19T15:50:35;62.60;26.40
19880;DHT22;10102;50.828;4.416;2022-07-19T15:53:07;62.50;26.40
19880;DHT22;10102;50.828;4.416;2022-07-19T15:55:33;62.00;26.60
19880;DHT22;10102;50.828;4.416;2022-07-19T15:57:59;61.60;26.90
19880;DHT22;10102;50.828;4.416;2022-07-19T16:00:26;62.00;26.70